sensor_id;sensor_type;location;lat;lon;timestamp;temperature;humidity
19088;DHT22;9676;50.916;13.352;2024-02-28T00:01:27;9.20;99.90
19088;DHT22;9676;50.916;13.352;2024-02-28T00:04:16;9.10;99.90
19088;DHT22;9676;50.916;13.352;2024-02-28T00:07:06;9.20;99.90
19088;DHT22;9676;50.916;13.352;2024-02-28T00:09:56;9.20;99.90
19088;DHT22;9676;50.916;13.352;2024-02-28T00:12:47;9.20;99.90
19088;DHT22;9676;50.916;13.352;2024-02-28T00:15:36;9.20;99.90
19088;DHT22;9676;50.916;13.352;2024-02-28T00:18:26;9.20;99.90
19088;DHT22;9676;50.916;13.352;2024-02-28T00:21:15;9.20;99.90
19088;DHT22;9676;50.916;13.352;2024-02-28T00:24:05;9.20;99.90
19088;DHT22;9676;50.916;13.352;2024-02-28T00:26:55;9.20;99.90
19088;DHT22;9676;50.916;13.352;2024-02-28T00:29:45;9.20;99.90
19088;DHT22;9676;50.916;13.352;2024-02-28T00:32:35;9.10;99.90
19088;DHT22;9676;50.916;13.352;2024-02-28T00:35:24;9.10;99.90
19088;DHT22;9676;50.916;13.352;2024-02-28T00:38:13;9.10;99.90
19088;DHT22;9676;50.916;13.352;2024-02-28T00:41:03;9.10;99.90
19088;DHT22;9676;50.916;13.352;2024-02-28T00:43:52;9.10;99.90
19088;DHT22;9676;50.916;13.352;2024-02-28T00:46:43;9.10;99.90
19088;DHT22;9676;50.916;13.352;2024-02-28T00:49:32;9.10;99.90
19088;DHT22;9676;50.916;13.352;2024-02-28T00:52:22;9.10;99.90
19088;DHT22;9676;50.916;13.352;2024-02-28T00:55:13;9.10;99.90
19088;DHT22;9676;50.916;13.352;2024-02-28T00:58:02;9.20;99.90
19088;DHT22;9676;50.916;13.352;2024-02-28T01:00:52;9.20;99.90
19088;DHT22;9676;50.916;13.352;2024-02-28T01:03:43;9.20;99.90
19088;DHT22;9676;50.916;13.352;2024-02-28T01:06:32;9.20;99.90
19088;DHT22;9676;50.916;13.352;2024-02-28T01:09:21;9.20;99.90
19088;DHT22;9676;50.916;13.352;2024-02-28T01:12:11;9.20;99.90
19088;DHT22;9676;50.916;13.352;2024-02-28T01:15:00;9.20;99.90
19088;DHT22;9676;50.916;13.352;2024-02-28T01:17:50;9.20;99.90
19088;DHT22;9676;50.916;13.352;2024-02-28T01:20:40;9.20;99.90
19088;DHT22;9676;50.916;13.352;2024-02-28T01:23:30;9.30;99.90
19088;DHT22;9676;50.916;13.352;2024-02-28T01:26:20;9.30;99.90
19088;DHT22;9676;50.916;13.352;2024-02-28T01:29:10;9.30;99.90
19088;DHT22;9676;50.916;13.352;2024-02-28T01:31:59;9.30;99.90
19088;DHT22;9676;50.916;13.352;2024-02-28T01:34:49;9.30;99.90
19088;DHT22;9676;50.916;13.352;2024-02-28T01:37:39;9.30;99.90
19088;DHT22;9676;50.916;13.352;2024-02-28T01:40:29;9.30;99.90
19088;DHT22;9676;50.916;13.352;2024-02-28T01:43:19;9.30;99.90
19088;DHT22;9676;50.916;13.352;2024-02-28T01:46:20;9.30;99.90
19088;DHT22;9676;50.916;13.352;2024-02-28T01:49:12;9.30;99.90
19088;DHT22;9676;50.916;13.352;2024-02-28T01:52:01;9.30;99.90
19088;DHT22;9676;50.916;13.352;2024-02-28T01:54:53;9.30;99.90
19088;DHT22;9676;50.916;13.352;2024-02-28T01:57:43;9.30;99.90
19088;DHT22;9676;50.916;13.352;2024-02-28T02:00:34;9.30;99.90
19088;DHT22;9676;50.916;13.352;2024-02-28T02:03:23;9.30;99.90
19088;DHT22;9676;50.916;13.352;2024-02-28T02:06:13;9.30;99.90
19088;DHT22;9676;50.916;13.352;2024-02-28T02:09:02;9.30;99.90
19088;DHT22;9676;50.916;13.352;2024-02-28T02:11:53;9.30;99.90
19088;DHT22;9676;50.916;13.352;2024-02-28T02:14:47;9.30;99.90
19088;DHT22;9676;50.916;13.352;2024-02-28T02:17:36;9.40;99.90
19088;DHT22;9676;50.916;13.352;2024-02-28T02:20:26;9.30;99.90
19088;DHT22;9676;50.916;13.352;2024-02-28T02:23:20;9.30;99.90
19088;DHT22;9676;50.916;13.352;2024-02-28T02:26:10;9.30;99.90
19088;DHT22;9676;50.916;13.352;2024-02-28T02:28:59;9.30;99.90
19088;DHT22;9676;50.916;13.352;2024-02-28T02:31:48;9.30;99.90
19088;DHT22;9676;50.916;13.352;2024-02-28T02:34:37;9.30;99.90
19088;DHT22;9676;50.916;13.352;2024-02-28T02:37:27;9.30;99.90
19088;DHT22;9676;50.916;13.352;2024-02-28T02:40:17;9.30;99.90
19088;DHT22;9676;50.916;13.352;2024-02-28T02:43:07;9.30;99.90
19088;DHT22;9676;50.916;13.352;2024-02-28T02:45:57;9.30;99.90
19088;DHT22;9676;50.916;13.352;2024-02-28T02:48:46;9.30;99.90
19088;DHT22;9676;50.916;13.352;2024-02-28T02:51:36;9.30;99.90
19088;DHT22;9676;50.916;13.352;2024-02-28T02:54:25;9.30;99.90
19088;DHT22;9676;50.916;13.352;2024-02-28T02:57:16;9.30;99.90
19088;DHT22;9676;50.916;13.352;2024-02-28T03:00:08;9.30;99.90
19088;DHT22;9676;50.916;13.352;2024-02-28T03:02:59;9.30;99.90
19088;DHT22;9676;50.916;13.352;2024-02-28T03:05:48;9.20;99.90
19088;DHT22;9676;50.916;13.352;2024-02-28T03:08:37;9.20;99.90
19088;DHT22;9676;50.916;13.352;2024-02-28T03:11:27;9.20;99.90
19088;DHT22;9676;50.916;13.352;2024-02-28T03:14:17;9.20;99.90
19088;DHT22;9676;50.916;13.352;2024-02-28T03:17:09;9.20;99.90
19088;DHT22;9676;50.916;13.352;2024-02-28T03:19:59;9.20;99.90
19088;DHT22;9676;50.916;13.352;2024-02-28T03:22:48;9.20;99.90
19088;DHT22;9676;50.916;13.352;2024-02-28T03:25:37;9.20;99.90
19088;DHT22;9676;50.916;13.352;2024-02-28T03:28:27;9.20;99.90
19088;DHT22;9676;50.916;13.352;2024-02-28T03:31:18;9.30;99.90
19088;DHT22;9676;50.916;13.352;2024-02-28T03:34:07;9.30;99.90
19088;DHT22;9676;50.916;13.352;2024-02-28T03:36:58;9.30;99.90
19088;DHT22;9676;50.916;13.352;2024-02-28T03:39:47;9.30;99.90
19088;DHT22;9676;50.916;13.352;2024-02-28T03:42:36;9.30;99.90
19088;DHT22;9676;50.916;13.352;2024-02-28T03:45:27;9.30;99.90
19088;DHT22;9676;50.916;13.352;2024-02-28T03:48:18;9.30;99.90
19088;DHT22;9676;50.916;13.352;2024-02-28T03:51:08;9.30;99.90
19088;DHT22;9676;50.916;13.352;2024-02-28T03:53:57;9.30;99.90
19088;DHT22;9676;50.916;13.352;2024-02-28T03:56:48;9.30;99.90
19088;DHT22;9676;50.916;13.352;2024-02-28T03:59:37;9.20;99.90
19088;DHT22;9676;50.916;13.352;2024-02-28T04:02:27;9.20;99.90
19088;DHT22;9676;50.916;13.352;2024-02-28T04:05:17;9.20;99.90
19088;DHT22;9676;50.916;13.352;2024-02-28T04:08:07;9.20;99.90
19088;DHT22;9676;50.916;13.352;2024-02-28T04:10:56;9.20;99.90
19088;DHT22;9676;50.916;13.352;2024-02-28T04:13:45;9.20;99.90
19088;DHT22;9676;50.916;13.352;2024-02-28T04:16:40;9.20;99.90
19088;DHT22;9676;50.916;13.352;2024-02-28T04:19:33;9.20;99.90
19088;DHT22;9676;50.916;13.352;2024-02-28T04:22:26;9.20;99.90
19088;DHT22;9676;50.916;13.352;2024-02-28T04:25:15;9.20;99.90
19088;DHT22;9676;50.916;13.352;2024-02-28T04:28:05;9.20;99.90
19088;DHT22;9676;50.916;13.352;2024-02-28T04:30:55;9.20;99.90
19088;DHT22;9676;50.916;13.352;2024-02-28T04:33:44;9.20;99.90
19088;DHT22;9676;50.916;13.352;2024-02-28T04:36:34;9.20;99.90
19088;DHT22;9676;50.916;13.352;2024-02-28T04:39:25;9.20;99.90
19088;DHT22;9676;50.916;13.352;2024-02-28T04:42:15;9.10;99.90
19088;DHT22;9676;50.916;13.352;2024-02-28T04:45:05;9.10;99.90
19088;DHT22;9676;50.916;13.352;2024-02-28T04:47:55;9.10;99.90
19088;DHT22;9676;50.916;13.352;2024-02-28T04:50:46;9.10;99.90
19088;DHT22;9676;50.916;13.352;2024-02-28T04:53:36;9.10;99.90
19088;DHT22;9676;50.916;13.352;2024-02-28T04:56:27;9.10;99.90
19088;DHT22;9676;50.916;13.352;2024-02-28T04:59:16;9.00;99.90
19088;DHT22;9676;50.916;13.352;2024-02-28T05:02:06;9.00;99.90
19088;DHT22;9676;50.916;13.352;2024-02-28T05:04:55;9.00;99.90
19088;DHT22;9676;50.916;13.352;2024-02-28T05:07:46;9.00;99.90
19088;DHT22;9676;50.916;13.352;2024-02-28T05:10:35;9.00;99.90
19088;DHT22;9676;50.916;13.352;2024-02-28T05:13:26;9.00;99.90
19088;DHT22;9676;50.916;13.352;2024-02-28T05:16:15;9.00;99.90
19088;DHT22;9676;50.916;13.352;2024-02-28T05:19:05;9.00;99.90
19088;DHT22;9676;50.916;13.352;2024-02-28T05:21:54;9.00;99.90
19088;DHT22;9676;50.916;13.352;2024-02-28T05:24:45;9.00;99.90
19088;DHT22;9676;50.916;13.352;2024-02-28T05:27:35;9.00;99.90
19088;DHT22;9676;50.916;13.352;2024-02-28T05:30:26;9.00;99.90
19088;DHT22;9676;50.916;13.352;2024-02-28T05:33:15;9.00;99.90
19088;DHT22;9676;50.916;13.352;2024-02-28T05:36:06;9.00;99.90
19088;DHT22;9676;50.916;13.352;2024-02-28T05:38:57;9.00;99.90
19088;DHT22;9676;50.916;13.352;2024-02-28T05:41:47;9.00;99.90
19088;DHT22;9676;50.916;13.352;2024-02-28T05:44:36;9.00;99.90
19088;DHT22;9676;50.916;13.352;2024-02-28T05:47:27;9.00;99.90
19088;DHT22;9676;50.916;13.352;2024-02-28T05:50:17;9.00;99.90
19088;DHT22;9676;50.916;13.352;2024-02-28T05:53:07;8.90;99.90
19088;DHT22;9676;50.916;13.352;2024-02-28T05:55:56;8.90;99.90
19088;DHT22;9676;50.916;13.352;2024-02-28T05:58:47;8.90;99.90
19088;DHT22;9676;50.916;13.352;2024-02-28T06:01:36;8.90;99.90
19088;DHT22;9676;50.916;13.352;2024-02-28T06:04:29;8.90;99.90
19088;DHT22;9676;50.916;13.352;2024-02-28T06:07:19;8.90;99.90
19088;DHT22;9676;50.916;13.352;2024-02-28T06:10:08;8.90;99.90
19088;DHT22;9676;50.916;13.352;2024-02-28T06:12:58;8.90;99.90
19088;DHT22;9676;50.916;13.352;2024-02-28T06:15:48;8.90;99.90
19088;DHT22;9676;50.916;13.352;2024-02-28T06:18:37;8.80;99.90
19088;DHT22;9676;50.916;13.352;2024-02-28T06:21:28;8.80;99.90
19088;DHT22;9676;50.916;13.352;2024-02-28T06:24:18;8.80;99.90
19088;DHT22;9676;50.916;13.352;2024-02-28T06:27:07;8.80;99.90
19088;DHT22;9676;50.916;13.352;2024-02-28T06:30:00;8.90;99.90
19088;DHT22;9676;50.916;13.352;2024-02-28T06:32:50;8.90;99.90
19088;DHT22;9676;50.916;13.352;2024-02-28T06:35:39;8.90;99.90
19088;DHT22;9676;50.916;13.352;2024-02-28T06:38:30;8.90;99.90
19088;DHT22;9676;50.916;13.352;2024-02-28T06:41:20;8.90;99.90
19088;DHT22;9676;50.916;13.352;2024-02-28T06:44:09;8.90;99.90
19088;DHT22;9676;50.916;13.352;2024-02-28T06:46:59;8.90;99.90
19088;DHT22;9676;50.916;13.352;2024-02-28T06:49:48;8.90;99.90
19088;DHT22;9676;50.916;13.352;2024-02-28T06:52:38;8.90;99.90
19088;DHT22;9676;50.916;13.352;2024-02-28T06:55:29;8.90;99.90
19088;DHT22;9676;50.916;13.352;2024-02-28T06:58:18;8.90;99.90
19088;DHT22;9676;50.916;13.352;2024-02-28T07:01:07;8.90;99.90
19088;DHT22;9676;50.916;13.352;2024-02-28T07:03:57;8.90;99.90
19088;DHT22;9676;50.916;13.352;2024-02-28T07:06:46;8.90;99.90
19088;DHT22;9676;50.916;13.352;2024-02-28T07:09:38;8.90;99.90
19088;DHT22;9676;50.916;13.352;2024-02-28T07:12:30;8.90;99.90
19088;DHT22;9676;50.916;13.352;2024-02-28T07:15:20;8.90;99.90
19088;DHT22;9676;50.916;13.352;2024-02-28T07:18:09;8.90;99.90
19088;DHT22;9676;50.916;13.352;2024-02-28T07:20:59;8.80;99.90
19088;DHT22;9676;50.916;13.352;2024-02-28T07:23:49;8.80;99.90
19088;DHT22;9676;50.916;13.352;2024-02-28T07:26:39;8.80;99.90
19088;DHT22;9676;50.916;13.352;2024-02-28T07:29:30;8.80;99.90
19088;DHT22;9676;50.916;13.352;2024-02-28T07:32:21;8.80;99.90
19088;DHT22;9676;50.916;13.352;2024-02-28T07:35:12;8.80;99.90
19088;DHT22;9676;50.916;13.352;2024-02-28T07:38:03;8.80;99.90
19088;DHT22;9676;50.916;13.352;2024-02-28T07:40:53;8.80;99.90
19088;DHT22;9676;50.916;13.352;2024-02-28T07:43:42;8.80;99.90
19088;DHT22;9676;50.916;13.352;2024-02-28T07:46:33;8.80;99.90
19088;DHT22;9676;50.916;13.352;2024-02-28T07:49:23;8.90;99.90
19088;DHT22;9676;50.916;13.352;2024-02-28T07:52:15;8.90;99.90
19088;DHT22;9676;50.916;13.352;2024-02-28T07:55:05;8.90;99.90
19088;DHT22;9676;50.916;13.352;2024-02-28T07:57:55;8.90;99.90
19088;DHT22;9676;50.916;13.352;2024-02-28T08:00:45;8.90;99.90
19088;DHT22;9676;50.916;13.352;2024-02-28T08:03:36;9.00;99.90
19088;DHT22;9676;50.916;13.352;2024-02-28T08:06:25;9.00;99.90
19088;DHT22;9676;50.916;13.352;2024-02-28T08:09:15;9.00;99.90
19088;DHT22;9676;50.916;13.352;2024-02-28T08:12:04;9.10;99.90
19088;DHT22;9676;50.916;13.352;2024-02-28T08:14:54;9.10;99.90
19088;DHT22;9676;50.916;13.352;2024-02-28T08:17:43;9.10;99.90
19088;DHT22;9676;50.916;13.352;2024-02-28T08:20:34;9.10;99.90
19088;DHT22;9676;50.916;13.352;2024-02-28T08:23:23;9.10;99.90
19088;DHT22;9676;50.916;13.352;2024-02-28T08:26:14;9.10;99.90
19088;DHT22;9676;50.916;13.352;2024-02-28T08:29:03;9.10;99.90
19088;DHT22;9676;50.916;13.352;2024-02-28T08:31:52;9.10;99.90
19088;DHT22;9676;50.916;13.352;2024-02-28T08:34:43;9.10;99.90
19088;DHT22;9676;50.916;13.352;2024-02-28T08:37:35;9.10;99.90
19088;DHT22;9676;50.916;13.352;2024-02-28T08:40:24;9.10;99.90
19088;DHT22;9676;50.916;13.352;2024-02-28T08:43:14;9.10;99.90
19088;DHT22;9676;50.916;13.352;2024-02-28T08:46:03;9.10;99.90
19088;DHT22;9676;50.916;13.352;2024-02-28T08:48:53;9.10;99.90
19088;DHT22;9676;50.916;13.352;2024-02-28T08:51:42;9.10;99.90
19088;DHT22;9676;50.916;13.352;2024-02-28T08:54:37;9.10;99.90
19088;DHT22;9676;50.916;13.352;2024-02-28T08:57:27;9.10;99.90
19088;DHT22;9676;50.916;13.352;2024-02-28T09:00:18;9.10;99.90
19088;DHT22;9676;50.916;13.352;2024-02-28T09:03:07;9.10;99.90
19088;DHT22;9676;50.916;13.352;2024-02-28T09:05:57;9.10;99.90
19088;DHT22;9676;50.916;13.352;2024-02-28T09:08:46;9.10;99.90
19088;DHT22;9676;50.916;13.352;2024-02-28T09:11:37;9.20;99.90
19088;DHT22;9676;50.916;13.352;2024-02-28T09:14:27;9.20;99.90
19088;DHT22;9676;50.916;13.352;2024-02-28T09:17:16;9.20;99.90
19088;DHT22;9676;50.916;13.352;2024-02-28T09:20:07;9.20;99.90
19088;DHT22;9676;50.916;13.352;2024-02-28T09:22:56;9.20;99.90
19088;DHT22;9676;50.916;13.352;2024-02-28T09:25:46;9.30;99.90
19088;DHT22;9676;50.916;13.352;2024-02-28T09:28:37;9.30;99.90
19088;DHT22;9676;50.916;13.352;2024-02-28T09:31:26;9.40;99.90
19088;DHT22;9676;50.916;13.352;2024-02-28T09:34:16;9.50;99.90
19088;DHT22;9676;50.916;13.352;2024-02-28T09:37:05;9.50;99.90
19088;DHT22;9676;50.916;13.352;2024-02-28T09:39:55;9.60;99.90
19088;DHT22;9676;50.916;13.352;2024-02-28T09:42:48;9.60;99.90
19088;DHT22;9676;50.916;13.352;2024-02-28T09:45:42;9.60;99.90
19088;DHT22;9676;50.916;13.352;2024-02-28T09:48:35;9.70;99.90
19088;DHT22;9676;50.916;13.352;2024-02-28T09:51:25;9.70;99.90
19088;DHT22;9676;50.916;13.352;2024-02-28T09:54:15;9.70;99.90
19088;DHT22;9676;50.916;13.352;2024-02-28T09:57:05;9.80;99.90
19088;DHT22;9676;50.916;13.352;2024-02-28T09:59:55;9.80;99.90
19088;DHT22;9676;50.916;13.352;2024-02-28T10:02:48;9.80;99.90
19088;DHT22;9676;50.916;13.352;2024-02-28T10:05:39;9.90;99.90
19088;DHT22;9676;50.916;13.352;2024-02-28T10:08:28;9.90;99.90
19088;DHT22;9676;50.916;13.352;2024-02-28T10:11:19;10.00;99.90
19088;DHT22;9676;50.916;13.352;2024-02-28T10:14:09;10.00;99.90
19088;DHT22;9676;50.916;13.352;2024-02-28T10:16:59;10.00;99.90
19088;DHT22;9676;50.916;13.352;2024-02-28T10:19:51;10.10;99.90
19088;DHT22;9676;50.916;13.352;2024-02-28T10:22:41;10.20;99.90
19088;DHT22;9676;50.916;13.352;2024-02-28T10:25:30;10.20;99.90
19088;DHT22;9676;50.916;13.352;2024-02-28T10:28:28;10.30;99.90
19088;DHT22;9676;50.916;13.352;2024-02-28T10:31:17;10.40;99.90
19088;DHT22;9676;50.916;13.352;2024-02-28T10:34:08;10.50;99.90
19088;DHT22;9676;50.916;13.352;2024-02-28T10:37:00;10.50;99.90
19088;DHT22;9676;50.916;13.352;2024-02-28T10:39:52;10.50;99.90
19088;DHT22;9676;50.916;13.352;2024-02-28T10:42:44;10.60;99.90
19088;DHT22;9676;50.916;13.352;2024-02-28T10:45:35;10.70;99.90
19088;DHT22;9676;50.916;13.352;2024-02-28T10:48:45;10.70;99.90
19088;DHT22;9676;50.916;13.352;2024-02-28T10:51:36;10.80;99.90
19088;DHT22;9676;50.916;13.352;2024-02-28T10:54:29;10.80;99.90
19088;DHT22;9676;50.916;13.352;2024-02-28T10:57:22;10.70;99.90
19088;DHT22;9676;50.916;13.352;2024-02-28T11:00:14;10.70;99.90
19088;DHT22;9676;50.916;13.352;2024-02-28T11:03:05;10.70;99.90
19088;DHT22;9676;50.916;13.352;2024-02-28T11:05:55;10.60;99.90
19088;DHT22;9676;50.916;13.352;2024-02-28T11:08:46;10.60;99.90
19088;DHT22;9676;50.916;13.352;2024-02-28T11:11:38;10.60;99.90
19088;DHT22;9676;50.916;13.352;2024-02-28T11:14:28;10.70;99.90
19088;DHT22;9676;50.916;13.352;2024-02-28T11:17:26;10.70;99.90
19088;DHT22;9676;50.916;13.352;2024-02-28T11:20:17;10.70;99.90
19088;DHT22;9676;50.916;13.352;2024-02-28T11:23:08;10.80;99.90
19088;DHT22;9676;50.916;13.352;2024-02-28T11:25:58;10.80;99.90
19088;DHT22;9676;50.916;13.352;2024-02-28T11:28:49;10.90;99.90
19088;DHT22;9676;50.916;13.352;2024-02-28T11:31:38;11.00;99.90
19088;DHT22;9676;50.916;13.352;2024-02-28T11:34:28;11.10;99.90
19088;DHT22;9676;50.916;13.352;2024-02-28T11:37:18;11.20;99.90
19088;DHT22;9676;50.916;13.352;2024-02-28T11:40:08;11.30;99.90
19088;DHT22;9676;50.916;13.352;2024-02-28T11:43:00;11.40;99.90
19088;DHT22;9676;50.916;13.352;2024-02-28T11:45:53;11.50;99.90
19088;DHT22;9676;50.916;13.352;2024-02-28T11:48:44;11.50;99.90
19088;DHT22;9676;50.916;13.352;2024-02-28T11:51:34;11.70;99.90
19088;DHT22;9676;50.916;13.352;2024-02-28T11:54:24;11.80;99.90
19088;DHT22;9676;50.916;13.352;2024-02-28T11:57:13;11.90;99.90
19088;DHT22;9676;50.916;13.352;2024-02-28T12:00:06;12.00;99.90
19088;DHT22;9676;50.916;13.352;2024-02-28T12:03:08;12.00;99.90
19088;DHT22;9676;50.916;13.352;2024-02-28T12:05:58;12.10;99.60
19088;DHT22;9676;50.916;13.352;2024-02-28T12:08:48;12.10;99.80
19088;DHT22;9676;50.916;13.352;2024-02-28T12:11:38;12.20;99.60
19088;DHT22;9676;50.916;13.352;2024-02-28T12:14:27;12.10;99.20
19088;DHT22;9676;50.916;13.352;2024-02-28T12:17:17;12.10;99.20
19088;DHT22;9676;50.916;13.352;2024-02-28T12:20:09;12.10;99.20
19088;DHT22;9676;50.916;13.352;2024-02-28T12:22:59;12.10;98.90
19088;DHT22;9676;50.916;13.352;2024-02-28T12:25:48;12.10;99.50
19088;DHT22;9676;50.916;13.352;2024-02-28T12:28:38;12.10;99.20
19088;DHT22;9676;50.916;13.352;2024-02-28T12:31:27;12.20;99.00
19088;DHT22;9676;50.916;13.352;2024-02-28T12:34:17;12.20;99.10
19088;DHT22;9676;50.916;13.352;2024-02-28T12:37:08;12.20;99.10
19088;DHT22;9676;50.916;13.352;2024-02-28T12:39:57;12.20;98.30
19088;DHT22;9676;50.916;13.352;2024-02-28T12:42:47;12.20;98.20
19088;DHT22;9676;50.916;13.352;2024-02-28T12:45:36;12.20;98.40
19088;DHT22;9676;50.916;13.352;2024-02-28T12:48:26;12.20;98.40
19088;DHT22;9676;50.916;13.352;2024-02-28T12:51:35;12.30;98.40
19088;DHT22;9676;50.916;13.352;2024-02-28T12:54:27;12.30;97.70
19088;DHT22;9676;50.916;13.352;2024-02-28T12:57:16;12.30;98.00
19088;DHT22;9676;50.916;13.352;2024-02-28T13:00:07;12.40;98.20
19088;DHT22;9676;50.916;13.352;2024-02-28T13:02:57;12.40;98.00
19088;DHT22;9676;50.916;13.352;2024-02-28T13:05:46;12.40;98.40
19088;DHT22;9676;50.916;13.352;2024-02-28T13:08:35;12.50;98.40
19088;DHT22;9676;50.916;13.352;2024-02-28T13:11:26;12.50;98.20
19088;DHT22;9676;50.916;13.352;2024-02-28T13:14:15;12.60;98.10
19088;DHT22;9676;50.916;13.352;2024-02-28T13:17:05;12.70;98.70
19088;DHT22;9676;50.916;13.352;2024-02-28T13:19:55;12.70;98.10
19088;DHT22;9676;50.916;13.352;2024-02-28T13:22:44;12.80;97.80
19088;DHT22;9676;50.916;13.352;2024-02-28T13:25:34;12.90;97.50
19088;DHT22;9676;50.916;13.352;2024-02-28T13:28:25;12.90;97.10
19088;DHT22;9676;50.916;13.352;2024-02-28T13:31:17;13.00;96.20
19088;DHT22;9676;50.916;13.352;2024-02-28T13:34:07;13.00;95.70
19088;DHT22;9676;50.916;13.352;2024-02-28T13:36:57;13.00;95.20
19088;DHT22;9676;50.916;13.352;2024-02-28T13:39:47;12.90;94.80
19088;DHT22;9676;50.916;13.352;2024-02-28T13:42:39;12.90;94.50
19088;DHT22;9676;50.916;13.352;2024-02-28T13:45:30;12.90;94.20
19088;DHT22;9676;50.916;13.352;2024-02-28T13:48:21;12.80;93.50
19088;DHT22;9676;50.916;13.352;2024-02-28T13:51:12;12.70;93.30
19088;DHT22;9676;50.916;13.352;2024-02-28T13:54:03;12.70;93.00
19088;DHT22;9676;50.916;13.352;2024-02-28T13:56:53;12.60;92.70
19088;DHT22;9676;50.916;13.352;2024-02-28T13:59:42;12.50;92.70
19088;DHT22;9676;50.916;13.352;2024-02-28T14:02:38;12.40;92.00
19088;DHT22;9676;50.916;13.352;2024-02-28T14:05:27;12.30;91.90
19088;DHT22;9676;50.916;13.352;2024-02-28T14:08:17;12.20;91.50
19088;DHT22;9676;50.916;13.352;2024-02-28T14:11:07;12.10;91.30
19088;DHT22;9676;50.916;13.352;2024-02-28T14:13:57;12.00;91.30
19088;DHT22;9676;50.916;13.352;2024-02-28T14:16:46;11.90;91.10
19088;DHT22;9676;50.916;13.352;2024-02-28T14:19:37;11.80;90.90
19088;DHT22;9676;50.916;13.352;2024-02-28T14:22:26;11.70;90.80
19088;DHT22;9676;50.916;13.352;2024-02-28T14:25:17;11.60;90.80
19088;DHT22;9676;50.916;13.352;2024-02-28T14:28:07;11.50;90.80
19088;DHT22;9676;50.916;13.352;2024-02-28T14:30:57;11.40;91.00
19088;DHT22;9676;50.916;13.352;2024-02-28T14:33:46;11.30;90.90
19088;DHT22;9676;50.916;13.352;2024-02-28T14:36:37;11.20;90.90
19088;DHT22;9676;50.916;13.352;2024-02-28T14:39:26;11.10;91.00
19088;DHT22;9676;50.916;13.352;2024-02-28T14:42:16;11.10;91.20
19088;DHT22;9676;50.916;13.352;2024-02-28T14:45:07;11.00;91.30
19088;DHT22;9676;50.916;13.352;2024-02-28T14:47:58;11.00;91.20
19088;DHT22;9676;50.916;13.352;2024-02-28T14:50:47;10.90;91.20
19088;DHT22;9676;50.916;13.352;2024-02-28T14:53:38;10.90;91.30
19088;DHT22;9676;50.916;13.352;2024-02-28T14:56:28;10.80;91.10
19088;DHT22;9676;50.916;13.352;2024-02-28T14:59:17;10.80;91.20
19088;DHT22;9676;50.916;13.352;2024-02-28T15:02:07;10.70;91.20
19088;DHT22;9676;50.916;13.352;2024-02-28T15:04:57;10.70;91.20
19088;DHT22;9676;50.916;13.352;2024-02-28T15:07:47;10.60;91.20
19088;DHT22;9676;50.916;13.352;2024-02-28T15:10:39;10.60;91.10
19088;DHT22;9676;50.916;13.352;2024-02-28T15:13:28;10.60;90.90
19088;DHT22;9676;50.916;13.352;2024-02-28T15:16:18;10.50;90.90
19088;DHT22;9676;50.916;13.352;2024-02-28T15:19:08;10.50;90.80
19088;DHT22;9676;50.916;13.352;2024-02-28T15:21:58;10.40;90.70
19088;DHT22;9676;50.916;13.352;2024-02-28T15:24:47;10.40;90.70
19088;DHT22;9676;50.916;13.352;2024-02-28T15:27:38;10.30;90.70
19088;DHT22;9676;50.916;13.352;2024-02-28T15:30:28;10.30;90.70
19088;DHT22;9676;50.916;13.352;2024-02-28T15:33:17;10.20;90.70
19088;DHT22;9676;50.916;13.352;2024-02-28T15:36:07;10.20;90.70
19088;DHT22;9676;50.916;13.352;2024-02-28T15:38:57;10.10;90.60
19088;DHT22;9676;50.916;13.352;2024-02-28T15:41:46;10.10;90.70
19088;DHT22;9676;50.916;13.352;2024-02-28T15:44:37;10.00;90.60
19088;DHT22;9676;50.916;13.352;2024-02-28T15:47:27;10.00;90.60
19088;DHT22;9676;50.916;13.352;2024-02-28T15:50:20;10.00;90.60
19088;DHT22;9676;50.916;13.352;2024-02-28T15:53:10;9.90;91.00
19088;DHT22;9676;50.916;13.352;2024-02-28T15:56:00;9.90;91.00
19088;DHT22;9676;50.916;13.352;2024-02-28T15:58:50;9.80;91.00
19088;DHT22;9676;50.916;13.352;2024-02-28T16:01:41;9.80;90.90
19088;DHT22;9676;50.916;13.352;2024-02-28T16:04:30;9.80;91.00
19088;DHT22;9676;50.916;13.352;2024-02-28T16:07:20;9.70;90.90
19088;DHT22;9676;50.916;13.352;2024-02-28T16:10:09;9.70;90.90
19088;DHT22;9676;50.916;13.352;2024-02-28T16:12:59;9.60;90.80
19088;DHT22;9676;50.916;13.352;2024-02-28T16:15:51;9.60;90.80
19088;DHT22;9676;50.916;13.352;2024-02-28T16:18:42;9.50;90.70
19088;DHT22;9676;50.916;13.352;2024-02-28T16:21:32;9.50;90.70
19088;DHT22;9676;50.916;13.352;2024-02-28T16:24:21;9.40;90.60
19088;DHT22;9676;50.916;13.352;2024-02-28T16:27:11;9.40;90.60
19088;DHT22;9676;50.916;13.352;2024-02-28T16:30:00;9.30;90.50
19088;DHT22;9676;50.916;13.352;2024-02-28T16:32:50;9.20;90.40
19088;DHT22;9676;50.916;13.352;2024-02-28T16:35:41;9.20;90.30
19088;DHT22;9676;50.916;13.352;2024-02-28T16:38:30;9.10;90.30
19088;DHT22;9676;50.916;13.352;2024-02-28T16:41:19;9.00;90.20
19088;DHT22;9676;50.916;13.352;2024-02-28T16:44:09;9.00;90.10
19088;DHT22;9676;50.916;13.352;2024-02-28T16:46:58;8.90;90.00
19088;DHT22;9676;50.916;13.352;2024-02-28T16:49:48;8.80;90.00
19088;DHT22;9676;50.916;13.352;2024-02-28T16:52:38;8.70;90.00
19088;DHT22;9676;50.916;13.352;2024-02-28T16:55:28;8.60;90.00
19088;DHT22;9676;50.916;13.352;2024-02-28T16:58:17;8.60;90.20
19088;DHT22;9676;50.916;13.352;2024-02-28T17:01:07;8.50;89.90
19088;DHT22;9676;50.916;13.352;2024-02-28T17:03:56;8.40;89.80
19088;DHT22;9676;50.916;13.352;2024-02-28T17:06:46;8.30;89.70
19088;DHT22;9676;50.916;13.352;2024-02-28T17:09:39;8.20;89.70
19088;DHT22;9676;50.916;13.352;2024-02-28T17:12:28;8.20;90.10
19088;DHT22;9676;50.916;13.352;2024-02-28T17:15:18;8.10;89.90
19088;DHT22;9676;50.916;13.352;2024-02-28T17:18:07;8.00;89.90
19088;DHT22;9676;50.916;13.352;2024-02-28T17:20:57;8.00;89.90
19088;DHT22;9676;50.916;13.352;2024-02-28T17:23:48;7.90;89.90
19088;DHT22;9676;50.916;13.352;2024-02-28T17:26:39;7.80;89.90
19088;DHT22;9676;50.916;13.352;2024-02-28T17:29:28;7.70;90.20
19088;DHT22;9676;50.916;13.352;2024-02-28T17:32:19;7.70;90.10
19088;DHT22;9676;50.916;13.352;2024-02-28T17:35:08;7.60;90.10
19088;DHT22;9676;50.916;13.352;2024-02-28T17:37:58;7.60;90.20
19088;DHT22;9676;50.916;13.352;2024-02-28T17:40:47;7.50;90.20
19088;DHT22;9676;50.916;13.352;2024-02-28T17:43:38;7.40;90.30
19088;DHT22;9676;50.916;13.352;2024-02-28T17:46:27;7.40;90.50
19088;DHT22;9676;50.916;13.352;2024-02-28T17:49:17;7.30;90.40
19088;DHT22;9676;50.916;13.352;2024-02-28T17:52:08;7.20;90.50
19088;DHT22;9676;50.916;13.352;2024-02-28T17:54:57;7.20;90.60
19088;DHT22;9676;50.916;13.352;2024-02-28T17:57:48;7.10;90.60
19088;DHT22;9676;50.916;13.352;2024-02-28T18:00:40;7.10;90.70
19088;DHT22;9676;50.916;13.352;2024-02-28T18:03:29;7.00;91.00
19088;DHT22;9676;50.916;13.352;2024-02-28T18:06:19;7.00;90.80
19088;DHT22;9676;50.916;13.352;2024-02-28T18:09:08;6.90;90.80